Time;durP1;ratioP1;P1;durP2;ratioP2;P2;SDS_P1;SDS_P2;PMS_P1;PMS_P2;Temp;Humidity;BMP_temperature;BMP_pressure;BME280_temperature;BME280_humidity;BME280_pressure;Samples;Min_cycle;Max_cycle;Signal;HPM_P1;HPM_P2
2022/07/23 00:00:10;;;;;;;14.40;13.10;;;;;;;;;;109043;1253;33547;-34
2022/07/23 00:03:03;;;;;;;14.20;12.90;;;;;;;;;;109000;1253;34017;-34
2022/07/23 00:05:36;;;;;;;14.10;12.80;;;;;;;;;;108976;1253;33931;-34
2022/07/23 00:08:12;;;;;;;14.10;12.80;;;;;;;;;;109013;1260;34234;-34
2022/07/23 00:10:44;;;;;;;14.10;12.70;;;;;;;;;;109004;1253;33323;-34
2022/07/23 00:13:17;;;;;;;13.70;12.30;;;;;;;;;;109027;1260;33994;-35
2022/07/23 00:15:49;;;;;;;13.90;12.40;;;;;;;;;;109026;1253;34105;-34
2022/07/23 00:18:21;;;;;;;14.10;12.80;;;;;;;;;;109032;1253;33925;-34
2022/07/23 00:20:54;;;;;;;13.10;11.80;;;;;;;;;;109028;1253;33933;-34
2022/07/23 00:23:27;;;;;;;13.80;12.40;;;;;;;;;;109024;1253;33824;-35
2022/07/23 00:26:00;;;;;;;14.30;12.80;;;;;;;;;;109024;1260;34770;-34
2022/07/23 00:28:33;;;;;;;13.10;11.80;;;;;;;;;;109022;1260;34716;-34
2022/07/23 00:31:05;;;;;;;13.80;12.40;;;;;;;;;;109006;1253;33755;-34
2022/07/23 00:33:38;;;;;;;13.50;12.30;;;;;;;;;;109001;1260;34488;-34
2022/07/23 00:36:12;;;;;;;14.90;13.40;;;;;;;;;;108988;1260;34716;-34
2022/07/23 00:38:45;;;;;;;14.90;13.50;;;;;;;;;;109022;1253;34032;-34
2022/07/23 00:41:16;;;;;;;;;;;;;;;;;;109028;1253;34342;-34
2022/07/23 00:43:49;;;;;;;15.20;13.70;;;;;;;;;;109026;1260;34397;-34
2022/07/23 00:46:26;;;;;;;15.70;14.20;;;;;;;;;;109007;1253;33393;-35
2022/07/23 00:48:59;;;;;;;15.70;14.20;;;;;;;;;;109020;1253;34437;-35
2022/07/23 00:51:32;;;;;;;15.90;14.20;;;;;;;;;;109012;1260;33362;-35
2022/07/23 00:54:04;;;;;;;15.70;14.20;;;;;;;;;;109003;1260;33888;-34
2022/07/23 00:56:37;;;;;;;16.10;14.40;;;;;;;;;;109037;1260;33403;-34
2022/07/23 00:59:11;;;;;;;16.90;15.20;;;;;;;;;;109006;1254;33817;-35
2022/07/23 01:01:48;;;;;;;14.70;13.40;;;;;;;;;;109022;1253;33855;-35
2022/07/23 01:04:21;;;;;;;16.20;14.70;;;;;;;;;;109010;1260;34513;-34
2022/07/23 01:06:56;;;;;;;16.70;15.20;;;;;;;;;;108969;1260;34233;-34
2022/07/23 01:09:29;;;;;;;17.40;15.80;;;;;;;;;;109005;1260;34098;-34
2022/07/23 01:12:02;;;;;;;18.30;16.60;;;;;;;;;;109021;1253;33415;-34
2022/07/23 01:14:34;;;;;;;16.60;15.10;;;;;;;;;;109019;1260;33969;-34
2022/07/23 01:17:07;;;;;;;16.50;14.90;;;;;;;;;;109020;1260;34292;-34
2022/07/23 01:19:40;;;;;;;15.50;14.10;;;;;;;;;;109008;1253;33791;-34
2022/07/23 01:22:15;;;;;;;18.30;16.40;;;;;;;;;;108994;1253;34094;-34
2022/07/23 01:24:47;;;;;;;15.40;14.00;;;;;;;;;;108999;1260;34247;-34
2022/07/23 01:27:19;;;;;;;15.90;14.50;;;;;;;;;;109033;1260;34272;-34
2022/07/23 01:29:52;;;;;;;17.90;16.10;;;;;;;;;;109024;1253;33941;-34
2022/07/23 01:32:24;;;;;;;18.80;16.90;;;;;;;;;;109001;1253;33567;-34
2022/07/23 01:34:57;;;;;;;17.30;15.70;;;;;;;;;;108987;1260;34276;-34
2022/07/23 01:37:29;;;;;;;18.50;16.80;;;;;;;;;;109013;1253;33390;-34
2022/07/23 01:40:02;;;;;;;17.50;16.00;;;;;;;;;;108983;1253;33831;-34
2022/07/23 01:42:34;;;;;;;19.00;17.20;;;;;;;;;;108960;1253;33882;-34
2022/07/23 01:45:09;;;;;;;18.30;16.60;;;;;;;;;;108989;1253;33929;-34
2022/07/23 01:47:41;;;;;;;18.80;17.00;;;;;;;;;;108993;1254;33670;-34
2022/07/23 01:50:16;;;;;;;17.80;16.00;;;;;;;;;;108961;1253;33791;-34
2022/07/23 01:52:49;;;;;;;17.50;15.90;;;;;;;;;;108961;1260;34238;-34
2022/07/23 01:55:21;;;;;;;18.00;16.20;;;;;;;;;;109002;1260;34374;-34
2022/07/23 01:57:53;;;;;;;18.70;16.90;;;;;;;;;;108963;1254;34041;-34
2022/07/23 02:00:25;;;;;;;18.10;16.40;;;;;;;;;;108943;1260;33443;-34
2022/07/23 02:03:00;;;;;;;18.10;16.40;;;;;;;;;;108940;1253;34442;-34
2022/07/23 02:05:36;;;;;;;16.70;15.10;;;;;;;;;;108956;1260;33892;-34
2022/07/23 02:08:11;;;;;;;15.40;14.00;;;;;;;;;;108923;1253;33413;-34
2022/07/23 02:10:43;;;;;;;15.40;14.00;;;;;;;;;;108959;1253;34316;-34
2022/07/23 02:13:17;;;;;;;16.00;14.30;;;;;;;;;;108931;1253;33833;-34
2022/07/23 02:15:49;;;;;;;15.20;13.70;;;;;;;;;;108953;1253;34836;-34
2022/07/23 02:18:22;;;;;;;15.80;14.40;;;;;;;;;;108950;1253;34360;-34
2022/07/23 02:20:54;;;;;;;15.30;13.80;;;;;;;;;;108987;1253;33933;-34
2022/07/23 02:23:27;;;;;;;15.00;13.60;;;;;;;;;;108970;1253;33978;-34
2022/07/23 02:25:59;;;;;;;14.90;13.50;;;;;;;;;;109009;1253;34440;-34
2022/07/23 02:28:32;;;;;;;14.60;13.10;;;;;;;;;;108993;1261;33523;-34
2022/07/23 02:31:06;;;;;;;14.70;13.40;;;;;;;;;;108986;1253;34214;-34
2022/07/23 02:33:38;;;;;;;14.40;13.10;;;;;;;;;;109037;1253;33947;-34
2022/07/23 02:36:12;;;;;;;13.60;12.40;;;;;;;;;;109034;1253;34003;-34
2022/07/23 02:38:44;;;;;;;15.20;13.80;;;;;;;;;;109034;1253;33943;-34
2022/07/23 02:41:17;;;;;;;14.20;12.70;;;;;;;;;;108995;1261;34259;-34
2022/07/23 02:43:49;;;;;;;14.50;13.10;;;;;;;;;;109029;1253;33852;-34
2022/07/23 02:46:22;;;;;;;13.80;12.50;;;;;;;;;;109006;1253;33537;-34
2022/07/23 02:48:54;;;;;;;13.60;12.30;;;;;;;;;;109008;1253;33426;-34
2022/07/23 02:51:27;;;;;;;13.70;12.50;;;;;;;;;;108993;1261;33356;-34
2022/07/23 02:53:59;;;;;;;13.80;12.50;;;;;;;;;;109013;1253;33865;-34
2022/07/23 02:56:32;;;;;;;13.70;12.30;;;;;;;;;;109023;1260;33531;-34
2022/07/23 02:59:05;;;;;;;14.10;12.70;;;;;;;;;;109010;1254;33927;-34
2022/07/23 03:01:38;;;;;;;14.50;13.10;;;;;;;;;;109021;1253;33795;-34
2022/07/23 03:04:10;;;;;;;14.40;12.80;;;;;;;;;;109023;1253;33908;-34
2022/07/23 03:06:42;;;;;;;14.60;13.20;;;;;;;;;;109048;1260;34350;-34
2022/07/23 03:09:15;;;;;;;14.90;13.40;;;;;;;;;;109037;1253;33825;-34
2022/07/23 03:11:48;;;;;;;14.00;12.50;;;;;;;;;;109026;1253;34037;-34
2022/07/23 03:14:21;;;;;;;14.00;12.60;;;;;;;;;;109009;1253;34001;-34
2022/07/23 03:16:55;;;;;;;17.80;15.60;;;;;;;;;;109021;1260;34002;-34
2022/07/23 03:19:28;;;;;;;17.20;15.60;;;;;;;;;;108994;1253;33747;-34
2022/07/23 03:22:03;;;;;;;17.40;15.80;;;;;;;;;;109031;1253;33855;-34
2022/07/23 03:27:27;;;;;;;17.50;15.90;;;;;;;;;;109002;1253;33467;-34
2022/07/23 03:30:01;;;;;;;17.30;15.60;;;;;;;;;;109058;1261;34285;-34
2022/07/23 03:32:34;;;;;;;17.00;15.40;;;;;;;;;;109048;1253;33796;-34
2022/07/23 03:35:10;;;;;;;17.60;15.90;;;;;;;;;;109018;1253;33876;-34
2022/07/23 03:37:46;;;;;;;17.90;16.00;;;;;;;;;;108997;1253;33993;-34
2022/07/23 03:40:21;;;;;;;16.70;15.20;;;;;;;;;;108982;1260;34054;-34
2022/07/23 03:42:56;;;;;;;16.00;14.40;;;;;;;;;;109002;1253;33399;-35
2022/07/23 03:45:29;;;;;;;17.10;15.50;;;;;;;;;;109007;1261;34326;-34
2022/07/23 03:48:02;;;;;;;17.10;15.50;;;;;;;;;;109019;1253;33890;-34
2022/07/23 03:50:35;;;;;;;16.50;14.80;;;;;;;;;;108973;1260;34247;-34
2022/07/23 03:53:08;;;;;;;17.00;15.40;;;;;;;;;;108984;1253;34098;-34
2022/07/23 03:55:41;;;;;;;17.40;15.60;;;;;;;;;;108954;1253;33846;-34
2022/07/23 03:58:13;;;;;;;16.60;15.00;;;;;;;;;;108999;1253;34334;-34
2022/07/23 04:00:46;;;;;;;16.40;14.80;;;;;;;;;;108966;1260;33999;-34
2022/07/23 04:03:18;;;;;;;16.00;14.50;;;;;;;;;;108961;1253;33937;-34
2022/07/23 04:05:51;;;;;;;17.50;15.70;;;;;;;;;;108922;1253;33790;-34
2022/07/23 04:08:23;;;;;;;16.40;14.80;;;;;;;;;;108972;1253;34055;-34
2022/07/23 04:10:57;;;;;;;16.40;14.90;;;;;;;;;;108994;1260;34336;-34
2022/07/23 04:13:29;;;;;;;16.40;14.80;;;;;;;;;;109002;1253;34061;-34
2022/07/23 04:16:07;;;;;;;15.60;13.90;;;;;;;;;;109002;1253;33944;-34
2022/07/23 04:18:42;;;;;;;17.20;15.50;;;;;;;;;;109006;1253;33898;-34
2022/07/23 04:21:19;;;;;;;16.70;15.00;;;;;;;;;;108988;1253;34111;-34
2022/07/23 04:23:54;;;;;;;16.70;15.00;;;;;;;;;;108982;1262;34537;-34
2022/07/23 04:26:27;;;;;;;17.00;15.30;;;;;;;;;;108959;1262;34714;-34
2022/07/23 04:28:59;;;;;;;16.40;14.90;;;;;;;;;;108986;1253;33981;-34
2022/07/23 04:31:31;;;;;;;18.00;16.30;;;;;;;;;;108983;1253;34006;-34
2022/07/23 04:34:04;;;;;;;16.40;14.80;;;;;;;;;;109005;1253;33705;-34
2022/07/23 04:36:37;;;;;;;16.70;15.10;;;;;;;;;;109009;1254;34305;-34
2022/07/23 04:39:09;;;;;;;17.80;16.10;;;;;;;;;;108945;1253;33660;-34
2022/07/23 04:41:45;;;;;;;17.20;15.50;;;;;;;;;;109012;1260;34243;-34
2022/07/23 04:44:22;;;;;;;17.00;15.10;;;;;;;;;;109008;1260;34285;-34
2022/07/23 04:46:54;;;;;;;17.90;16.00;;;;;;;;;;109009;1253;33504;-34
2022/07/23 04:49:26;;;;;;;17.50;15.90;;;;;;;;;;108999;1253;34072;-34
2022/07/23 04:51:58;;;;;;;16.90;15.30;;;;;;;;;;108994;1253;33711;-34
2022/07/23 04:54:31;;;;;;;16.30;14.80;;;;;;;;;;108964;1261;34377;-34
2022/07/23 04:57:05;;;;;;;16.40;14.80;;;;;;;;;;109015;1260;34415;-34
2022/07/23 04:59:37;;;;;;;18.00;15.20;;;;;;;;;;109026;1253;33483;-34
2022/07/23 05:02:12;;;;;;;16.20;14.60;;;;;;;;;;109005;1253;34620;-34
2022/07/23 05:04:45;;;;;;;17.30;15.50;;;;;;;;;;109042;1253;33954;-34
2022/07/23 05:07:18;;;;;;;16.70;15.00;;;;;;;;;;109003;1253;33875;-34
2022/07/23 05:09:51;;;;;;;17.00;15.40;;;;;;;;;;109010;1253;33869;-34
2022/07/23 05:12:24;;;;;;;16.40;14.80;;;;;;;;;;108976;1260;33930;-35
2022/07/23 05:14:56;;;;;;;16.10;14.40;;;;;;;;;;109010;1260;33480;-35
2022/07/23 05:17:29;;;;;;;14.70;13.40;;;;;;;;;;108998;1253;34040;-35
2022/07/23 05:20:01;;;;;;;15.80;14.30;;;;;;;;;;109016;1253;33463;-35
2022/07/23 05:22:34;;;;;;;16.30;14.80;;;;;;;;;;108964;1253;33987;-35
2022/07/23 05:25:08;;;;;;;15.50;14.10;;;;;;;;;;109044;1261;34186;-35
2022/07/23 05:27:41;;;;;;;15.80;14.40;;;;;;;;;;109032;1253;33970;-35
2022/07/23 05:30:15;;;;;;;15.20;13.70;;;;;;;;;;109024;1253;33820;-35
2022/07/23 05:32:50;;;;;;;16.00;14.50;;;;;;;;;;109113;1253;33999;-35
2022/07/23 05:35:23;;;;;;;15.60;14.10;;;;;;;;;;109096;1253;33547;-35
2022/07/23 05:37:54;;;;;;;;;;;;;;;;;;109028;1260;33419;-34
2022/07/23 05:40:29;;;;;;;14.80;13.30;;;;;;;;;;109039;1253;33441;-34
2022/07/23 05:43:01;;;;;;;15.10;13.60;;;;;;;;;;109014;1260;33403;-35
2022/07/23 05:45:34;;;;;;;15.50;14.10;;;;;;;;;;109005;1253;33923;-35
2022/07/23 05:48:09;;;;;;;16.00;14.50;;;;;;;;;;109013;1253;33931;-35
2022/07/23 05:50:41;;;;;;;15.40;13.80;;;;;;;;;;109000;1254;33788;-35
2022/07/23 05:53:14;;;;;;;15.80;14.30;;;;;;;;;;108971;1253;33842;-35
2022/07/23 05:55:46;;;;;;;15.20;13.80;;;;;;;;;;108993;1253;34839;-34
2022/07/23 05:58:18;;;;;;;15.60;14.20;;;;;;;;;;108980;1253;34069;-35
2022/07/23 06:00:51;;;;;;;15.70;14.20;;;;;;;;;;108975;1260;33977;-35
2022/07/23 06:03:22;;;;;;;;;;;;;;;;;;108512;1254;716252;-35
2022/07/23 06:05:54;;;;;;;14.80;13.40;;;;;;;;;;108986;1260;32891;-34
2022/07/23 06:08:26;;;;;;;15.60;14.10;;;;;;;;;;108982;1254;33753;-35
2022/07/23 06:11:00;;;;;;;14.90;13.50;;;;;;;;;;108992;1253;34174;-35
2022/07/23 06:13:33;;;;;;;15.20;13.80;;;;;;;;;;109023;1260;33858;-35
2022/07/23 06:16:06;;;;;;;15.70;14.20;;;;;;;;;;108999;1254;33933;-35
2022/07/23 06:18:39;;;;;;;15.30;13.90;;;;;;;;;;108991;1254;34287;-35
2022/07/23 06:21:11;;;;;;;14.80;13.50;;;;;;;;;;109005;1260;33334;-35
2022/07/23 06:23:43;;;;;;;14.60;13.20;;;;;;;;;;109002;1262;34381;-35
2022/07/23 06:26:16;;;;;;;15.60;14.20;;;;;;;;;;109001;1253;34144;-35
2022/07/23 06:28:48;;;;;;;15.30;13.90;;;;;;;;;;109010;1253;33954;-35
2022/07/23 06:31:20;;;;;;;15.40;13.80;;;;;;;;;;109020;1253;33806;-35
2022/07/23 06:33:52;;;;;;;13.40;12.20;;;;;;;;;;108994;1260;34204;-35
2022/07/23 06:36:25;;;;;;;16.30;14.80;;;;;;;;;;108993;1253;34073;-35
2022/07/23 06:39:01;;;;;;;14.80;13.40;;;;;;;;;;109021;1253;33682;-35
2022/07/23 06:41:34;;;;;;;14.80;13.30;;;;;;;;;;108990;1253;33958;-35
2022/07/23 06:44:07;;;;;;;14.90;13.50;;;;;;;;;;109012;1261;33426;-35
2022/07/23 06:46:40;;;;;;;14.90;13.40;;;;;;;;;;109002;1254;33819;-35
2022/07/23 06:49:12;;;;;;;14.30;13.00;;;;;;;;;;108989;1253;33977;-35
2022/07/23 06:51:45;;;;;;;14.50;13.10;;;;;;;;;;108986;1254;33999;-35
2022/07/23 06:54:18;;;;;;;15.40;13.90;;;;;;;;;;109003;1253;33920;-35
2022/07/23 06:56:52;;;;;;;16.50;15.00;;;;;;;;;;108999;1257;34217;-35
2022/07/23 06:59:25;;;;;;;13.90;12.50;;;;;;;;;;109018;1253;33409;-35
2022/07/23 07:01:58;;;;;;;14.80;13.40;;;;;;;;;;109022;1261;33889;-35
2022/07/23 07:04:29;;;;;;;;;;;;;;;;;;109057;1260;34303;-35
2022/07/23 07:07:02;;;;;;;14.50;13.10;;;;;;;;;;109044;1253;33428;-35
2022/07/23 07:09:33;;;;;;;;;;;;;;;;;;109028;1254;33916;-35
2022/07/23 07:12:06;;;;;;;13.10;11.80;;;;;;;;;;109004;1260;33993;-35
2022/07/23 07:14:39;;;;;;;13.80;12.50;;;;;;;;;;109100;1261;34266;-35
2022/07/23 07:17:15;;;;;;;13.70;12.30;;;;;;;;;;109043;1253;34114;-35
2022/07/23 07:19:47;;;;;;;13.40;12.20;;;;;;;;;;109073;1260;33839;-35
2022/07/23 07:22:20;;;;;;;14.30;12.90;;;;;;;;;;109081;1260;34071;-35
2022/07/23 07:24:52;;;;;;;13.10;11.80;;;;;;;;;;109080;1254;34272;-35
2022/07/23 07:27:24;;;;;;;13.80;12.50;;;;;;;;;;109070;1253;34308;-35
2022/07/23 07:29:57;;;;;;;13.20;11.90;;;;;;;;;;109061;1254;33387;-35
2022/07/23 07:32:32;;;;;;;13.20;12.00;;;;;;;;;;109053;1255;34060;-35
2022/07/23 07:35:05;;;;;;;13.30;12.10;;;;;;;;;;109072;1260;33464;-35
2022/07/23 07:37:37;;;;;;;12.40;11.30;;;;;;;;;;109088;1254;33880;-35
2022/07/23 07:40:12;;;;;;;13.00;11.60;;;;;;;;;;109038;1254;34345;-35
2022/07/23 07:42:53;;;;;;;12.90;11.70;;;;;;;;;;109060;1261;34808;-35
2022/07/23 07:45:27;;;;;;;13.10;11.80;;;;;;;;;;109020;1258;33977;-35
2022/07/23 07:47:59;;;;;;;12.40;11.20;;;;;;;;;;109069;1253;33367;-35
2022/07/23 07:50:31;;;;;;;11.80;10.80;;;;;;;;;;109069;1254;33376;-35
2022/07/23 07:53:04;;;;;;;12.00;10.80;;;;;;;;;;109023;1254;33948;-35
2022/07/23 07:55:36;;;;;;;12.80;11.70;;;;;;;;;;109059;1260;33792;-35
2022/07/23 07:58:10;;;;;;;11.90;10.80;;;;;;;;;;109057;1254;34857;-35
2022/07/23 08:00:42;;;;;;;11.80;10.60;;;;;;;;;;109050;1254;33857;-35
2022/07/23 08:03:15;;;;;;;12.30;11.20;;;;;;;;;;109080;1261;34044;-35
2022/07/23 08:05:48;;;;;;;12.00;10.90;;;;;;;;;;109059;1254;33475;-35
2022/07/23 08:08:20;;;;;;;12.00;10.80;;;;;;;;;;109026;1254;33409;-35
2022/07/23 08:10:52;;;;;;;12.40;11.10;;;;;;;;;;109029;1254;33669;-35
2022/07/23 08:13:25;;;;;;;12.20;10.90;;;;;;;;;;109044;1254;33860;-35
2022/07/23 08:15:58;;;;;;;11.20;10.10;;;;;;;;;;109083;1254;33505;-35
2022/07/23 08:18:31;;;;;;;12.00;10.90;;;;;;;;;;109062;1260;34691;-35
2022/07/23 08:21:05;;;;;;;11.30;10.20;;;;;;;;;;109043;1254;33444;-35
2022/07/23 08:23:37;;;;;;;12.10;11.00;;;;;;;;;;109083;1254;33831;-35
2022/07/23 08:26:10;;;;;;;12.00;10.90;;;;;;;;;;109012;1254;33474;-35
2022/07/23 08:28:42;;;;;;;12.20;11.00;;;;;;;;;;109041;1254;34267;-35
2022/07/23 08:31:17;;;;;;;11.50;10.40;;;;;;;;;;109049;1260;33854;-35
2022/07/23 08:33:49;;;;;;;12.80;11.50;;;;;;;;;;109077;1260;34288;-35
2022/07/23 08:36:22;;;;;;;11.80;10.60;;;;;;;;;;109030;1261;33367;-35
2022/07/23 08:38:55;;;;;;;12.40;11.20;;;;;;;;;;109033;1254;33815;-35
2022/07/23 08:41:27;;;;;;;11.90;10.70;;;;;;;;;;109079;1260;33916;-35
2022/07/23 08:44:01;;;;;;;11.40;10.30;;;;;;;;;;109033;1260;34384;-35
2022/07/23 08:46:34;;;;;;;12.70;11.50;;;;;;;;;;109052;1261;34150;-35
2022/07/23 08:49:09;;;;;;;12.00;10.90;;;;;;;;;;108784;1258;34154;-35
2022/07/23 08:51:46;;;;;;;12.60;11.50;;;;;;;;;;109083;1260;33366;-35
2022/07/23 08:54:18;;;;;;;12.10;10.90;;;;;;;;;;108756;1261;33905;-35
2022/07/23 08:56:51;;;;;;;12.00;10.90;;;;;;;;;;109050;1260;33868;-35
2022/07/23 08:59:23;;;;;;;12.30;11.10;;;;;;;;;;109044;1254;34116;-35
2022/07/23 09:01:56;;;;;;;12.10;10.50;;;;;;;;;;109039;1255;33784;-35
2022/07/23 09:04:29;;;;;;;12.00;10.90;;;;;;;;;;109022;1255;33859;-35
2022/07/23 09:07:04;;;;;;;11.80;10.70;;;;;;;;;;109063;1261;33377;-35
2022/07/23 09:09:39;;;;;;;11.90;10.80;;;;;;;;;;109064;1255;34357;-35
2022/07/23 09:12:15;;;;;;;11.90;10.80;;;;;;;;;;109035;1260;34055;-35
2022/07/23 09:14:50;;;;;;;11.30;10.20;;;;;;;;;;109067;1260;34371;-35
2022/07/23 09:17:23;;;;;;;11.70;10.60;;;;;;;;;;109054;1260;33495;-35
2022/07/23 09:20:10;;;;;;;11.00;9.90;;;;;;;;;;109051;1254;33919;-35
2022/07/23 09:22:47;;;;;;;11.10;9.90;;;;;;;;;;109087;1254;33845;-35
2022/07/23 09:25:21;;;;;;;10.70;9.70;;;;;;;;;;109059;1260;33747;-35
2022/07/23 09:27:57;;;;;;;11.60;10.50;;;;;;;;;;109073;1260;34016;-35
2022/07/23 09:30:31;;;;;;;11.30;10.20;;;;;;;;;;109088;1254;33377;-35
2022/07/23 09:33:12;;;;;;;11.70;10.50;;;;;;;;;;109086;1254;33833;-35
2022/07/23 09:35:59;;;;;;;11.20;10.20;;;;;;;;;;109053;1254;33361;-35
2022/07/23 09:38:31;;;;;;;11.60;10.50;;;;;;;;;;109069;1254;33921;-35
2022/07/23 09:41:13;;;;;;;10.70;9.70;;;;;;;;;;109093;1260;33963;-35
2022/07/23 09:43:46;;;;;;;10.50;9.50;;;;;;;;;;109049;1253;33758;-35
2022/07/23 09:46:28;;;;;;;11.30;10.20;;;;;;;;;;109076;1254;33942;-35
2022/07/23 09:49:00;;;;;;;10.70;9.80;;;;;;;;;;109053;1253;33831;-35
2022/07/23 09:51:36;;;;;;;11.70;10.50;;;;;;;;;;109055;1260;33462;-35
2022/07/23 09:54:24;;;;;;;11.10;10.10;;;;;;;;;;109044;1255;34000;-35
2022/07/23 09:56:58;;;;;;;11.10;10.00;;;;;;;;;;109059;1254;33870;-35
2022/07/23 09:59:33;;;;;;;11.40;10.30;;;;;;;;;;109067;1260;34405;-35
2022/07/23 10:02:10;;;;;;;10.50;9.50;;;;;;;;;;109046;1253;33710;-36
2022/07/23 10:04:46;;;;;;;10.90;9.90;;;;;;;;;;109034;1260;33384;-35
2022/07/23 10:07:20;;;;;;;11.70;10.60;;;;;;;;;;109039;1255;33936;-35
2022/07/23 10:09:52;;;;;;;11.20;10.20;;;;;;;;;;109039;1254;33983;-35
2022/07/23 10:15:17;;;;;;;11.00;9.60;;;;;;;;;;108672;1255;33914;-36
2022/07/23 10:17:52;;;;;;;11.40;9.80;;;;;;;;;;109053;1251;33992;-34
2022/07/23 10:20:25;;;;;;;10.30;9.20;;;;;;;;;;109162;1251;33922;-35
2022/07/23 10:23:03;;;;;;;10.60;9.60;;;;;;;;;;109142;1254;34288;-35
2022/07/23 10:25:40;;;;;;;9.90;8.90;;;;;;;;;;109161;1257;33936;-35
2022/07/23 10:28:31;;;;;;;10.60;8.90;;;;;;;;;;109119;1254;33797;-35
2022/07/23 10:31:14;;;;;;;10.30;9.30;;;;;;;;;;109129;1254;33230;-35
2022/07/23 10:33:58;;;;;;;11.30;9.90;;;;;;;;;;109122;1254;33823;-35
2022/07/23 10:36:38;;;;;;;11.00;8.90;;;;;;;;;;109127;1254;33909;-35
2022/07/23 10:39:16;;;;;;;10.30;9.20;;;;;;;;;;109035;1254;33336;-35
2022/07/23 10:41:49;;;;;;;9.90;8.90;;;;;;;;;;109223;1258;33845;-35
2022/07/23 10:44:23;;;;;;;9.10;8.20;;;;;;;;;;109149;1257;33923;-35
2022/07/23 10:50:30;;;;;;;9.30;8.40;;;;;;;;;;108475;1267;34479;-35
2022/07/23 10:53:20;;;;;;;9.30;8.40;;;;;;;;;;109106;1260;33345;-35
2022/07/23 10:55:54;;;;;;;9.80;8.80;;;;;;;;;;109138;1255;33370;-36
2022/07/23 10:58:53;;;;;;;9.50;8.50;;;;;;;;;;109055;1254;33721;-35
2022/07/23 11:01:40;;;;;;;10.40;8.20;;;;;;;;;;109120;1254;33738;-35
2022/07/23 11:04:13;;;;;;;9.30;8.40;;;;;;;;;;109145;1260;33410;-35
2022/07/23 11:07:12;;;;;;;;;;;;;;;;;;109135;1260;33881;-35
2022/07/23 11:09:46;;;;;;;9.80;8.80;;;;;;;;;;109161;1260;33881;-35
2022/07/23 11:12:40;;;;;;;9.10;8.30;;;;;;;;;;109170;1253;33849;-35
2022/07/23 11:15:15;;;;;;;8.60;7.80;;;;;;;;;;109119;1253;33045;-35
2022/07/23 11:18:02;;;;;;;8.70;7.90;;;;;;;;;;109165;1254;34332;-35
2022/07/23 11:20:34;;;;;;;9.30;8.50;;;;;;;;;;109141;1260;33865;-35
2022/07/23 11:23:06;;;;;;;9.00;8.10;;;;;;;;;;109118;1254;33925;-35
2022/07/23 11:25:41;;;;;;;8.70;7.90;;;;;;;;;;109115;1254;33724;-35
2022/07/23 11:28:17;;;;;;;9.00;8.10;;;;;;;;;;109141;1254;33962;-35
2022/07/23 11:30:50;;;;;;;9.20;8.20;;;;;;;;;;109139;1260;33900;-35
2022/07/23 11:33:25;;;;;;;8.80;7.80;;;;;;;;;;109172;1254;33887;-35
2022/07/23 11:36:08;;;;;;;8.70;7.80;;;;;;;;;;109160;1254;33621;-35
2022/07/23 11:38:41;;;;;;;8.70;7.70;;;;;;;;;;109151;1253;34053;-35
2022/07/23 11:41:16;;;;;;;10.30;8.00;;;;;;;;;;109130;1253;33707;-35
2022/07/23 11:43:49;;;;;;;8.90;7.70;;;;;;;;;;109132;1260;34205;-35
2022/07/23 11:46:21;;;;;;;9.20;8.30;;;;;;;;;;109162;1254;33416;-35
2022/07/23 11:49:08;;;;;;;10.00;8.60;;;;;;;;;;109110;1254;33344;-35
2022/07/23 11:51:40;;;;;;;9.00;8.10;;;;;;;;;;109089;1258;33428;-35
2022/07/23 11:54:15;;;;;;;8.80;8.00;;;;;;;;;;109154;1253;33742;-35
2022/07/23 11:57:00;;;;;;;8.60;7.70;;;;;;;;;;109134;1260;33862;-35
2022/07/23 11:59:36;;;;;;;8.50;7.70;;;;;;;;;;109151;1254;34411;-35
2022/07/23 12:02:09;;;;;;;8.50;7.70;;;;;;;;;;109146;1254;34075;-34
2022/07/23 12:04:43;;;;;;;8.50;7.60;;;;;;;;;;109113;1254;33361;-33
2022/07/23 12:07:37;;;;;;;8.80;8.00;;;;;;;;;;109121;1254;34364;-32
2022/07/23 12:10:18;;;;;;;8.10;7.30;;;;;;;;;;109154;1254;33948;-32
2022/07/23 12:12:55;;;;;;;8.60;7.80;;;;;;;;;;109146;1260;34401;-33
2022/07/23 12:15:34;;;;;;;8.40;7.50;;;;;;;;;;109145;1254;33873;-32
2022/07/23 12:18:08;;;;;;;9.10;8.20;;;;;;;;;;109156;1253;33960;-33
2022/07/23 12:20:43;;;;;;;8.60;7.60;;;;;;;;;;109126;1260;33860;-33
2022/07/23 12:23:18;;;;;;;8.60;7.70;;;;;;;;;;109167;1260;33945;-33
2022/07/23 12:25:52;;;;;;;8.70;7.90;;;;;;;;;;109107;1254;33674;-32
2022/07/23 12:28:30;;;;;;;9.50;8.60;;;;;;;;;;109098;1260;33791;-31
2022/07/23 12:31:03;;;;;;;8.70;7.80;;;;;;;;;;109107;1254;33768;-32
2022/07/23 12:33:38;;;;;;;8.20;7.40;;;;;;;;;;109078;1254;34480;-31
2022/07/23 12:36:12;;;;;;;8.90;8.00;;;;;;;;;;109097;1260;34391;-30
2022/07/23 12:38:49;;;;;;;8.70;7.90;;;;;;;;;;109107;1253;33844;-33
2022/07/23 12:41:23;;;;;;;8.40;7.60;;;;;;;;;;109073;1260;34256;-31
2022/07/23 12:43:53;;;;;;;;;;;;;;;;;;109104;1254;34053;-33
2022/07/23 12:46:26;;;;;;;8.20;7.30;;;;;;;;;;109183;1253;33123;-32
2022/07/23 12:48:58;;;;;;;9.00;8.10;;;;;;;;;;109138;1254;33367;-34
2022/07/23 12:51:34;;;;;;;8.60;7.80;;;;;;;;;;109153;1254;33709;-32
2022/07/23 12:54:10;;;;;;;8.00;7.20;;;;;;;;;;109148;1254;34057;-33
2022/07/23 12:56:48;;;;;;;7.80;7.00;;;;;;;;;;109106;1260;33869;-33
2022/07/23 12:59:20;;;;;;;7.70;6.90;;;;;;;;;;109128;1254;33857;-34
2022/07/23 13:02:03;;;;;;;7.70;6.80;;;;;;;;;;109104;1253;33799;-34
2022/07/23 13:04:37;;;;;;;7.60;6.80;;;;;;;;;;109111;1253;33739;-34
2022/07/23 13:07:09;;;;;;;8.30;7.00;;;;;;;;;;109119;1252;33962;-33
2022/07/23 13:09:41;;;;;;;7.50;6.80;;;;;;;;;;109123;1260;34535;-35
2022/07/23 13:12:14;;;;;;;7.00;6.30;;;;;;;;;;109153;1260;33502;-36
2022/07/23 13:14:46;;;;;;;7.50;6.70;;;;;;;;;;109132;1254;33386;-36
2022/07/23 13:17:18;;;;;;;7.30;6.50;;;;;;;;;;109155;1260;34106;-36
2022/07/23 13:19:50;;;;;;;7.40;6.70;;;;;;;;;;109090;1254;33742;-36
2022/07/23 13:22:23;;;;;;;7.70;6.90;;;;;;;;;;109140;1254;34059;-36
2022/07/23 13:24:55;;;;;;;7.00;6.30;;;;;;;;;;109123;1260;34825;-36
2022/07/23 13:27:31;;;;;;;7.20;6.40;;;;;;;;;;109140;1260;34103;-36
2022/07/23 13:30:04;;;;;;;7.30;6.60;;;;;;;;;;109120;1254;33426;-36
2022/07/23 13:32:36;;;;;;;7.50;6.70;;;;;;;;;;109148;1254;33796;-36
2022/07/23 13:35:12;;;;;;;7.40;6.60;;;;;;;;;;109133;1253;34579;-36
2022/07/23 13:37:45;;;;;;;6.90;6.20;;;;;;;;;;109120;1254;33913;-36
2022/07/23 13:40:18;;;;;;;6.70;6.10;;;;;;;;;;109151;1254;33785;-34
2022/07/23 13:42:50;;;;;;;7.00;6.30;;;;;;;;;;109113;1254;33867;-34
2022/07/23 13:45:23;;;;;;;6.60;5.90;;;;;;;;;;109168;1254;33831;-34
2022/07/23 13:47:54;;;;;;;;;;;;;;;;;;109177;1254;33878;-35
2022/07/23 13:50:27;;;;;;;6.90;6.00;;;;;;;;;;109161;1254;32884;-36
2022/07/23 13:53:03;;;;;;;7.00;6.00;;;;;;;;;;109166;1260;34063;-35
2022/07/23 13:55:43;;;;;;;6.40;5.80;;;;;;;;;;109660;1253;32893;-32
2022/07/23 13:58:20;;;;;;;6.60;5.90;;;;;;;;;;108944;1260;33862;-32
2022/07/23 14:00:57;;;;;;;6.80;6.00;;;;;;;;;;109134;1260;34164;-33
2022/07/23 14:03:33;;;;;;;6.60;5.90;;;;;;;;;;108977;1260;1236213;-33
2022/07/23 14:06:12;;;;;;;7.00;6.30;;;;;;;;;;108994;1253;33720;-33
2022/07/23 14:08:47;;;;;;;6.70;6.00;;;;;;;;;;109137;1260;34266;-33
2022/07/23 14:11:21;;;;;;;6.50;5.80;;;;;;;;;;109141;1254;34261;-32
2022/07/23 14:13:53;;;;;;;6.80;6.20;;;;;;;;;;108968;1260;34144;-32
2022/07/23 14:16:26;;;;;;;6.40;5.30;;;;;;;;;;109136;1254;33797;-32
2022/07/23 14:18:59;;;;;;;6.80;6.10;;;;;;;;;;109303;1251;33900;-32
2022/07/23 14:21:32;;;;;;;6.90;6.20;;;;;;;;;;109239;1251;34057;-32
2022/07/23 14:24:03;;;;;;;;;;;;;;;;;;109255;1251;33935;-32
2022/07/23 14:26:36;;;;;;;5.90;5.30;;;;;;;;;;109204;1251;33297;-32
2022/07/23 14:29:10;;;;;;;6.20;5.60;;;;;;;;;;109282;1250;33543;-32
2022/07/23 14:31:44;;;;;;;6.00;5.40;;;;;;;;;;109259;1251;33927;-33
2022/07/23 14:34:17;;;;;;;6.70;6.00;;;;;;;;;;109241;1251;33354;-32
2022/07/23 14:36:50;;;;;;;7.90;6.60;;;;;;;;;;109204;1251;34202;-32
2022/07/23 14:39:23;;;;;;;9.70;6.60;;;;;;;;;;109232;1251;33934;-32
2022/07/23 14:41:56;;;;;;;12.20;7.30;;;;;;;;;;109248;1250;34324;-32
2022/07/23 14:44:27;;;;;;;;;;;;;;;;;;109254;1251;33776;-32
2022/07/23 14:47:02;;;;;;;9.10;6.60;;;;;;;;;;109256;1251;33725;-32
2022/07/23 14:49:36;;;;;;;9.80;6.70;;;;;;;;;;109235;1253;33901;-32
2022/07/23 14:52:09;;;;;;;8.30;6.50;;;;;;;;;;109253;1260;34302;-32
2022/07/23 14:54:42;;;;;;;10.20;5.70;;;;;;;;;;109257;1251;34278;-32
2022/07/23 14:57:14;;;;;;;7.80;5.80;;;;;;;;;;109229;1257;34714;-32
2022/07/23 14:59:47;;;;;;;9.00;6.00;;;;;;;;;;109210;1257;34013;-32
2022/07/23 15:02:19;;;;;;;10.90;6.20;;;;;;;;;;109212;1251;33807;-32
2022/07/23 15:04:52;;;;;;;9.30;5.90;;;;;;;;;;109239;1251;33336;-32